SCSE/LSC METAR and TAF weather

Enter ICAO airport designator
Station Type Date Time Source
SCSE METAR 2021/07/24 20:00 UTC NOAA

SCSE 242000Z 25005KT 9999 SCT030 BKN050 13/08 Q1021


Station Type Date Time Source
SCSE Decoded METAR 2021/07/24 20:00 UTC NOAA

La Serena, Chile (SCSE) 29-54S 071-12W
Jul 24, 2021 - 04:00 PM EDT / 2021.07.24 2000 UTC
Wind: from the WSW (250 degrees) at 6 MPH (5 KT):0
Visibility: greater than 7 mile(s):0
Sky conditions: mostly cloudy
Temperature: 55 F (13 C)
Dew Point: 46 F (8 C)
Relative Humidity: 71%
Pressure (altimeter): 30.15 in. Hg (1021 hPa)
ob: SCSE 242000Z 25005KT 9999 SCT030 BKN050 13/08 Q1021
cycle: 20

Station Type Date Time Source
SCSE TAF 2021/07/24 18:03 UTC NOAA

TAF TAF SCSE 241621Z 2418/2518 11010KT 9999 FEW015 BKN025 TX14/2418Z TN05/2510Z
TEMPO 2418/2422 28004KT
BECMG 2502/2504 VRB02KT SCT040
BECMG 2514/2516 29008KT CAVOK

Example: see airport list